<?xml version="1.0" encoding="utf-8"?>
<gpx xmlns:xsi="http://www.w3.org/2001/XMLSchema-instance" xmlns:xsd="http://www.w3.org/2001/XMLSchema" version="1.1" creator="Shapelink.com" xmlns="http://www.topografix.com/GPX/1/1" xmlns:gpxtpx="http://www.garmin.com/xmlschemas/TrackPointExtension/v1">
  <metadata>
    <name>Løping 4.75 km, 2014-06-12</name>
    <desc></desc>
    <author><name>Carl Grundberg</name></author> 
    <time>2014-06-12T15:40:14Z</time>
  </metadata>
  <trk>
    <name>Løping 4.75 km, 2014-06-12</name>
    <trkseg>
      <trkpt lat="56.3464999" lon="13.6855469">
        <ele>117.418</ele>
        <time>2014-06-12T15:40:14Z</time>
      </trkpt>
      <trkpt lat="56.3466325" lon="13.6855434">
        <ele>116.938</ele>
        <time>2014-06-12T15:40:19Z</time>
      </trkpt>
      <trkpt lat="56.3468472" lon="13.6855051">
        <ele>115.976</ele>
        <time>2014-06-12T15:40:26Z</time>
      </trkpt>
      <trkpt lat="56.3469733" lon="13.6854729">
        <ele>115.015</ele>
        <time>2014-06-12T15:40:30Z</time>
      </trkpt>
      <trkpt lat="56.3470541" lon="13.6854663">
        <ele>114.534</ele>
        <time>2014-06-12T15:40:33Z</time>
      </trkpt>
      <trkpt lat="56.3471665" lon="13.6854588">
        <ele>114.054</ele>
        <time>2014-06-12T15:40:38Z</time>
      </trkpt>
      <trkpt lat="56.3473499" lon="13.6853755">
        <ele>113.573</ele>
        <time>2014-06-12T15:40:44Z</time>
      </trkpt>
      <trkpt lat="56.3474447" lon="13.6852667">
        <ele>114.054</ele>
        <time>2014-06-12T15:40:49Z</time>
      </trkpt>
      <trkpt lat="56.3475328" lon="13.6851643">
        <ele>113.573</ele>
        <time>2014-06-12T15:40:53Z</time>
      </trkpt>
      <trkpt lat="56.3476113" lon="13.6850681">
        <ele>114.054</ele>
        <time>2014-06-12T15:40:56Z</time>
      </trkpt>
      <trkpt lat="56.3477136" lon="13.6849398">
        <ele>115.015</ele>
        <time>2014-06-12T15:41:01Z</time>
      </trkpt>
      <trkpt lat="56.3478056" lon="13.6848351">
        <ele>115.976</ele>
        <time>2014-06-12T15:41:06Z</time>
      </trkpt>
      <trkpt lat="56.3478846" lon="13.6846042">
        <ele>116.938</ele>
        <time>2014-06-12T15:41:12Z</time>
      </trkpt>
      <trkpt lat="56.3479374" lon="13.6843706">
        <ele>118.379</ele>
        <time>2014-06-12T15:41:17Z</time>
      </trkpt>
      <trkpt lat="56.3479273" lon="13.6840637">
        <ele>119.821</ele>
        <time>2014-06-12T15:41:23Z</time>
      </trkpt>
      <trkpt lat="56.347872" lon="13.683751">
        <ele>120.783</ele>
        <time>2014-06-12T15:41:29Z</time>
      </trkpt>
      <trkpt lat="56.3477866" lon="13.6834713">
        <ele>119.341</ele>
        <time>2014-06-12T15:41:35Z</time>
      </trkpt>
      <trkpt lat="56.3477266" lon="13.683247">
        <ele>118.86</ele>
        <time>2014-06-12T15:41:39Z</time>
      </trkpt>
      <trkpt lat="56.3476633" lon="13.6829542">
        <ele>117.418</ele>
        <time>2014-06-12T15:41:44Z</time>
      </trkpt>
      <trkpt lat="56.3476394" lon="13.6827118">
        <ele>115.976</ele>
        <time>2014-06-12T15:41:48Z</time>
      </trkpt>
      <trkpt lat="56.3476477" lon="13.6824866">
        <ele>116.457</ele>
        <time>2014-06-12T15:41:52Z</time>
      </trkpt>
      <trkpt lat="56.3476389" lon="13.6823014">
        <ele>115.976</ele>
        <time>2014-06-12T15:41:56Z</time>
      </trkpt>
      <trkpt lat="56.3476016" lon="13.6820069">
        <ele>116.457</ele>
        <time>2014-06-12T15:42:02Z</time>
      </trkpt>
      <trkpt lat="56.347559" lon="13.6818338">
        <ele>115.976</ele>
        <time>2014-06-12T15:42:06Z</time>
      </trkpt>
      <trkpt lat="56.3475118" lon="13.6816138">
        <ele>115.976</ele>
        <time>2014-06-12T15:42:11Z</time>
      </trkpt>
      <trkpt lat="56.3474922" lon="13.6813561">
        <ele>115.976</ele>
        <time>2014-06-12T15:42:17Z</time>
      </trkpt>
      <trkpt lat="56.3475057" lon="13.6812422">
        <ele>115.496</ele>
        <time>2014-06-12T15:42:20Z</time>
      </trkpt>
      <trkpt lat="56.3475093" lon="13.6811582">
        <ele>115.496</ele>
        <time>2014-06-12T15:42:22Z</time>
      </trkpt>
      <trkpt lat="56.3475228" lon="13.6809822">
        <ele>115.496</ele>
        <time>2014-06-12T15:42:27Z</time>
      </trkpt>
      <trkpt lat="56.347482" lon="13.6808176">
        <ele>115.496</ele>
        <time>2014-06-12T15:42:31Z</time>
      </trkpt>
      <trkpt lat="56.3474902" lon="13.680614">
        <ele>115.976</ele>
        <time>2014-06-12T15:42:35Z</time>
      </trkpt>
      <trkpt lat="56.3474674" lon="13.6803985">
        <ele>115.976</ele>
        <time>2014-06-12T15:42:40Z</time>
      </trkpt>
      <trkpt lat="56.3474478" lon="13.6802928">
        <ele>115.496</ele>
        <time>2014-06-12T15:42:42Z</time>
      </trkpt>
      <trkpt lat="56.3474203" lon="13.6799913">
        <ele>115.015</ele>
        <time>2014-06-12T15:42:48Z</time>
      </trkpt>
      <trkpt lat="56.3474359" lon="13.6797699">
        <ele>114.534</ele>
        <time>2014-06-12T15:42:53Z</time>
      </trkpt>
      <trkpt lat="56.3475325" lon="13.6795194">
        <ele>113.092</ele>
        <time>2014-06-12T15:43:00Z</time>
      </trkpt>
      <trkpt lat="56.3475928" lon="13.6793511">
        <ele>113.573</ele>
        <time>2014-06-12T15:43:05Z</time>
      </trkpt>
      <trkpt lat="56.3476648" lon="13.6791879">
        <ele>114.054</ele>
        <time>2014-06-12T15:43:10Z</time>
      </trkpt>
      <trkpt lat="56.3477109" lon="13.6790988">
        <ele>114.054</ele>
        <time>2014-06-12T15:43:13Z</time>
      </trkpt>
      <trkpt lat="56.3477959" lon="13.6789615">
        <ele>113.573</ele>
        <time>2014-06-12T15:43:17Z</time>
      </trkpt>
      <trkpt lat="56.3478937" lon="13.678722">
        <ele>113.573</ele>
        <time>2014-06-12T15:43:22Z</time>
      </trkpt>
      <trkpt lat="56.3479558" lon="13.678587">
        <ele>114.054</ele>
        <time>2014-06-12T15:43:25Z</time>
      </trkpt>
      <trkpt lat="56.3480445" lon="13.6784092">
        <ele>113.573</ele>
        <time>2014-06-12T15:43:29Z</time>
      </trkpt>
      <trkpt lat="56.3481469" lon="13.6781351">
        <ele>113.573</ele>
        <time>2014-06-12T15:43:35Z</time>
      </trkpt>
      <trkpt lat="56.3481984" lon="13.6779145">
        <ele>113.573</ele>
        <time>2014-06-12T15:43:39Z</time>
      </trkpt>
      <trkpt lat="56.3481885" lon="13.6776207">
        <ele>114.054</ele>
        <time>2014-06-12T15:43:44Z</time>
      </trkpt>
      <trkpt lat="56.3481962" lon="13.6774541">
        <ele>113.573</ele>
        <time>2014-06-12T15:43:47Z</time>
      </trkpt>
      <trkpt lat="56.3481177" lon="13.6772535">
        <ele>114.054</ele>
        <time>2014-06-12T15:43:52Z</time>
      </trkpt>
      <trkpt lat="56.3480414" lon="13.6771107">
        <ele>114.054</ele>
        <time>2014-06-12T15:43:56Z</time>
      </trkpt>
      <trkpt lat="56.3479573" lon="13.6769593">
        <ele>114.054</ele>
        <time>2014-06-12T15:44:01Z</time>
      </trkpt>
      <trkpt lat="56.347948" lon="13.6769154">
        <ele>114.054</ele>
        <time>2014-06-12T15:44:02Z</time>
      </trkpt>
      <trkpt lat="56.3479518" lon="13.6767188">
        <ele>114.054</ele>
        <time>2014-06-12T15:44:07Z</time>
      </trkpt>
      <trkpt lat="56.3479788" lon="13.6766066">
        <ele>113.573</ele>
        <time>2014-06-12T15:44:10Z</time>
      </trkpt>
      <trkpt lat="56.3480481" lon="13.6764791">
        <ele>113.092</ele>
        <time>2014-06-12T15:44:15Z</time>
      </trkpt>
      <trkpt lat="56.3481014" lon="13.6763244">
        <ele>113.573</ele>
        <time>2014-06-12T15:44:21Z</time>
      </trkpt>
      <trkpt lat="56.3480818" lon="13.6761461">
        <ele>114.534</ele>
        <time>2014-06-12T15:44:25Z</time>
      </trkpt>
      <trkpt lat="56.3480804" lon="13.6759678">
        <ele>115.496</ele>
        <time>2014-06-12T15:44:28Z</time>
      </trkpt>
      <trkpt lat="56.3481132" lon="13.6757803">
        <ele>116.457</ele>
        <time>2014-06-12T15:44:32Z</time>
      </trkpt>
      <trkpt lat="56.3481207" lon="13.6756355">
        <ele>116.938</ele>
        <time>2014-06-12T15:44:36Z</time>
      </trkpt>
      <trkpt lat="56.3480575" lon="13.6753873">
        <ele>118.86</ele>
        <time>2014-06-12T15:44:43Z</time>
      </trkpt>
      <trkpt lat="56.3480049" lon="13.6752232">
        <ele>120.302</ele>
        <time>2014-06-12T15:44:47Z</time>
      </trkpt>
      <trkpt lat="56.3479953" lon="13.6751825">
        <ele>120.783</ele>
        <time>2014-06-12T15:44:48Z</time>
      </trkpt>
      <trkpt lat="56.3479311" lon="13.6749804">
        <ele>120.302</ele>
        <time>2014-06-12T15:44:53Z</time>
      </trkpt>
      <trkpt lat="56.3478475" lon="13.6747397">
        <ele>120.302</ele>
        <time>2014-06-12T15:44:59Z</time>
      </trkpt>
      <trkpt lat="56.3477834" lon="13.6745916">
        <ele>120.302</ele>
        <time>2014-06-12T15:45:03Z</time>
      </trkpt>
      <trkpt lat="56.3477787" lon="13.6744067">
        <ele>120.302</ele>
        <time>2014-06-12T15:45:08Z</time>
      </trkpt>
      <trkpt lat="56.3476902" lon="13.6740828">
        <ele>119.341</ele>
        <time>2014-06-12T15:45:14Z</time>
      </trkpt>
      <trkpt lat="56.3476047" lon="13.6738545">
        <ele>119.341</ele>
        <time>2014-06-12T15:45:18Z</time>
      </trkpt>
      <trkpt lat="56.3475146" lon="13.6735324">
        <ele>119.341</ele>
        <time>2014-06-12T15:45:24Z</time>
      </trkpt>
      <trkpt lat="56.3474788" lon="13.673339">
        <ele>119.341</ele>
        <time>2014-06-12T15:45:28Z</time>
      </trkpt>
      <trkpt lat="56.3474405" lon="13.6730842">
        <ele>118.86</ele>
        <time>2014-06-12T15:45:32Z</time>
      </trkpt>
      <trkpt lat="56.3474232" lon="13.6729402">
        <ele>118.379</ele>
        <time>2014-06-12T15:45:35Z</time>
      </trkpt>
      <trkpt lat="56.3474467" lon="13.6727154">
        <ele>117.418</ele>
        <time>2014-06-12T15:45:40Z</time>
      </trkpt>
      <trkpt lat="56.3474239" lon="13.6725309">
        <ele>116.938</ele>
        <time>2014-06-12T15:45:43Z</time>
      </trkpt>
      <trkpt lat="56.3474103" lon="13.6724724">
        <ele>116.457</ele>
        <time>2014-06-12T15:45:44Z</time>
      </trkpt>
      <trkpt lat="56.3473986" lon="13.6723228">
        <ele>115.976</ele>
        <time>2014-06-12T15:45:47Z</time>
      </trkpt>
      <trkpt lat="56.3474165" lon="13.6722207">
        <ele>115.496</ele>
        <time>2014-06-12T15:45:50Z</time>
      </trkpt>
      <trkpt lat="56.3474802" lon="13.6721124">
        <ele>115.496</ele>
        <time>2014-06-12T15:45:55Z</time>
      </trkpt>
      <trkpt lat="56.3475296" lon="13.6720205">
        <ele>115.496</ele>
        <time>2014-06-12T15:45:59Z</time>
      </trkpt>
      <trkpt lat="56.3475592" lon="13.6719317">
        <ele>115.976</ele>
        <time>2014-06-12T15:46:02Z</time>
      </trkpt>
      <trkpt lat="56.3475974" lon="13.6718428">
        <ele>116.457</ele>
        <time>2014-06-12T15:46:06Z</time>
      </trkpt>
      <trkpt lat="56.3476804" lon="13.6716917">
        <ele>115.496</ele>
        <time>2014-06-12T15:46:12Z</time>
      </trkpt>
      <trkpt lat="56.3477591" lon="13.6715372">
        <ele>116.457</ele>
        <time>2014-06-12T15:46:16Z</time>
      </trkpt>
      <trkpt lat="56.3478205" lon="13.6713956">
        <ele>116.938</ele>
        <time>2014-06-12T15:46:20Z</time>
      </trkpt>
      <trkpt lat="56.3478307" lon="13.6713669">
        <ele>116.938</ele>
        <time>2014-06-12T15:46:21Z</time>
      </trkpt>
      <trkpt lat="56.3478409" lon="13.6711437">
        <ele>116.938</ele>
        <time>2014-06-12T15:46:27Z</time>
      </trkpt>
      <trkpt lat="56.3478573" lon="13.6709734">
        <ele>117.899</ele>
        <time>2014-06-12T15:46:34Z</time>
      </trkpt>
      <trkpt lat="56.3478725" lon="13.6709387">
        <ele>116.938</ele>
        <time>2014-06-12T15:46:47Z</time>
      </trkpt>
      <trkpt lat="56.3478832" lon="13.6709767">
        <ele>116.457</ele>
        <time>2014-06-12T15:46:51Z</time>
      </trkpt>
      <trkpt lat="56.3478957" lon="13.6710386">
        <ele>115.496</ele>
        <time>2014-06-12T15:46:55Z</time>
      </trkpt>
      <trkpt lat="56.3478996" lon="13.6710639">
        <ele>115.015</ele>
        <time>2014-06-12T15:46:56Z</time>
      </trkpt>
      <trkpt lat="56.347927" lon="13.6712168">
        <ele>114.534</ele>
        <time>2014-06-12T15:47:01Z</time>
      </trkpt>
      <trkpt lat="56.3479653" lon="13.6714193">
        <ele>115.015</ele>
        <time>2014-06-12T15:47:06Z</time>
      </trkpt>
      <trkpt lat="56.3479814" lon="13.6715048">
        <ele>115.496</ele>
        <time>2014-06-12T15:47:08Z</time>
      </trkpt>
      <trkpt lat="56.348014" lon="13.6717848">
        <ele>115.976</ele>
        <time>2014-06-12T15:47:14Z</time>
      </trkpt>
      <trkpt lat="56.3480281" lon="13.6718297">
        <ele>115.976</ele>
        <time>2014-06-12T15:47:15Z</time>
      </trkpt>
      <trkpt lat="56.3480922" lon="13.672029">
        <ele>116.457</ele>
        <time>2014-06-12T15:47:20Z</time>
      </trkpt>
      <trkpt lat="56.3480788" lon="13.6721482">
        <ele>116.938</ele>
        <time>2014-06-12T15:47:23Z</time>
      </trkpt>
      <trkpt lat="56.348058" lon="13.6722195">
        <ele>116.457</ele>
        <time>2014-06-12T15:47:25Z</time>
      </trkpt>
      <trkpt lat="56.3480672" lon="13.6724821">
        <ele>117.899</ele>
        <time>2014-06-12T15:47:32Z</time>
      </trkpt>
      <trkpt lat="56.3481122" lon="13.672661">
        <ele>119.821</ele>
        <time>2014-06-12T15:47:37Z</time>
      </trkpt>
      <trkpt lat="56.3481247" lon="13.6727386">
        <ele>119.821</ele>
        <time>2014-06-12T15:47:39Z</time>
      </trkpt>
      <trkpt lat="56.3481197" lon="13.6729282">
        <ele>120.302</ele>
        <time>2014-06-12T15:47:43Z</time>
      </trkpt>
      <trkpt lat="56.3481226" lon="13.6732146">
        <ele>120.783</ele>
        <time>2014-06-12T15:47:48Z</time>
      </trkpt>
      <trkpt lat="56.3481238" lon="13.6733722">
        <ele>122.705</ele>
        <time>2014-06-12T15:47:51Z</time>
      </trkpt>
      <trkpt lat="56.3481218" lon="13.6734546">
        <ele>123.186</ele>
        <time>2014-06-12T15:47:53Z</time>
      </trkpt>
      <trkpt lat="56.3481719" lon="13.6737737">
        <ele>125.109</ele>
        <time>2014-06-12T15:47:59Z</time>
      </trkpt>
      <trkpt lat="56.3481785" lon="13.6738321">
        <ele>125.109</ele>
        <time>2014-06-12T15:48:00Z</time>
      </trkpt>
      <trkpt lat="56.3481589" lon="13.6740763">
        <ele>126.551</ele>
        <time>2014-06-12T15:48:05Z</time>
      </trkpt>
      <trkpt lat="56.348155" lon="13.6744049">
        <ele>127.993</ele>
        <time>2014-06-12T15:48:11Z</time>
      </trkpt>
      <trkpt lat="56.3481714" lon="13.674572">
        <ele>127.993</ele>
        <time>2014-06-12T15:48:14Z</time>
      </trkpt>
      <trkpt lat="56.3482477" lon="13.6747014">
        <ele>127.993</ele>
        <time>2014-06-12T15:48:18Z</time>
      </trkpt>
      <trkpt lat="56.3482819" lon="13.6747689">
        <ele>127.993</ele>
        <time>2014-06-12T15:48:20Z</time>
      </trkpt>
      <trkpt lat="56.3483591" lon="13.6750086">
        <ele>128.473</ele>
        <time>2014-06-12T15:48:25Z</time>
      </trkpt>
      <trkpt lat="56.3483792" lon="13.6751712">
        <ele>127.993</ele>
        <time>2014-06-12T15:48:28Z</time>
      </trkpt>
      <trkpt lat="56.3483788" lon="13.6752205">
        <ele>127.993</ele>
        <time>2014-06-12T15:48:29Z</time>
      </trkpt>
      <trkpt lat="56.3484367" lon="13.6754708">
        <ele>129.435</ele>
        <time>2014-06-12T15:48:34Z</time>
      </trkpt>
      <trkpt lat="56.348476" lon="13.6756675">
        <ele>129.915</ele>
        <time>2014-06-12T15:48:38Z</time>
      </trkpt>
      <trkpt lat="56.3484978" lon="13.6757623">
        <ele>129.915</ele>
        <time>2014-06-12T15:48:40Z</time>
      </trkpt>
      <trkpt lat="56.3485283" lon="13.6759266">
        <ele>129.915</ele>
        <time>2014-06-12T15:48:43Z</time>
      </trkpt>
      <trkpt lat="56.348547" lon="13.6762301">
        <ele>130.877</ele>
        <time>2014-06-12T15:48:49Z</time>
      </trkpt>
      <trkpt lat="56.348547" lon="13.6764615">
        <ele>130.396</ele>
        <time>2014-06-12T15:48:54Z</time>
      </trkpt>
      <trkpt lat="56.3485782" lon="13.6766584">
        <ele>129.915</ele>
        <time>2014-06-12T15:48:59Z</time>
      </trkpt>
      <trkpt lat="56.348546" lon="13.6769452">
        <ele>128.954</ele>
        <time>2014-06-12T15:49:04Z</time>
      </trkpt>
      <trkpt lat="56.3485283" lon="13.6772087">
        <ele>127.512</ele>
        <time>2014-06-12T15:49:09Z</time>
      </trkpt>
      <trkpt lat="56.3485183" lon="13.6773106">
        <ele>127.512</ele>
        <time>2014-06-12T15:49:11Z</time>
      </trkpt>
      <trkpt lat="56.3484936" lon="13.677524">
        <ele>126.07</ele>
        <time>2014-06-12T15:49:16Z</time>
      </trkpt>
      <trkpt lat="56.3484608" lon="13.6778186">
        <ele>125.109</ele>
        <time>2014-06-12T15:49:23Z</time>
      </trkpt>
      <trkpt lat="56.3484615" lon="13.6780093">
        <ele>124.147</ele>
        <time>2014-06-12T15:49:27Z</time>
      </trkpt>
      <trkpt lat="56.3484558" lon="13.6782178">
        <ele>123.186</ele>
        <time>2014-06-12T15:49:31Z</time>
      </trkpt>
      <trkpt lat="56.3484378" lon="13.6784206">
        <ele>122.705</ele>
        <time>2014-06-12T15:49:35Z</time>
      </trkpt>
      <trkpt lat="56.3484653" lon="13.6786146">
        <ele>122.225</ele>
        <time>2014-06-12T15:49:39Z</time>
      </trkpt>
      <trkpt lat="56.3484661" lon="13.6788833">
        <ele>121.744</ele>
        <time>2014-06-12T15:49:45Z</time>
      </trkpt>
      <trkpt lat="56.3484888" lon="13.6790252">
        <ele>121.744</ele>
        <time>2014-06-12T15:49:48Z</time>
      </trkpt>
      <trkpt lat="56.3485698" lon="13.6792276">
        <ele>120.783</ele>
        <time>2014-06-12T15:49:53Z</time>
      </trkpt>
      <trkpt lat="56.3486224" lon="13.6793193">
        <ele>120.302</ele>
        <time>2014-06-12T15:49:56Z</time>
      </trkpt>
      <trkpt lat="56.3486743" lon="13.6794697">
        <ele>119.821</ele>
        <time>2014-06-12T15:50:00Z</time>
      </trkpt>
      <trkpt lat="56.3487582" lon="13.6796972">
        <ele>118.86</ele>
        <time>2014-06-12T15:50:06Z</time>
      </trkpt>
      <trkpt lat="56.3487879" lon="13.679844">
        <ele>118.379</ele>
        <time>2014-06-12T15:50:09Z</time>
      </trkpt>
      <trkpt lat="56.3488096" lon="13.6800814">
        <ele>118.86</ele>
        <time>2014-06-12T15:50:14Z</time>
      </trkpt>
      <trkpt lat="56.348803" lon="13.6802049">
        <ele>118.86</ele>
        <time>2014-06-12T15:50:17Z</time>
      </trkpt>
      <trkpt lat="56.3487885" lon="13.6804244">
        <ele>118.86</ele>
        <time>2014-06-12T15:50:22Z</time>
      </trkpt>
      <trkpt lat="56.3487616" lon="13.6806943">
        <ele>118.379</ele>
        <time>2014-06-12T15:50:28Z</time>
      </trkpt>
      <trkpt lat="56.3487418" lon="13.6809315">
        <ele>119.341</ele>
        <time>2014-06-12T15:50:33Z</time>
      </trkpt>
      <trkpt lat="56.3487273" lon="13.6811361">
        <ele>120.783</ele>
        <time>2014-06-12T15:50:38Z</time>
      </trkpt>
      <trkpt lat="56.348748" lon="13.6813666">
        <ele>122.225</ele>
        <time>2014-06-12T15:50:43Z</time>
      </trkpt>
      <trkpt lat="56.3487661" lon="13.6815742">
        <ele>122.225</ele>
        <time>2014-06-12T15:50:48Z</time>
      </trkpt>
      <trkpt lat="56.3487894" lon="13.6817023">
        <ele>122.705</ele>
        <time>2014-06-12T15:50:52Z</time>
      </trkpt>
      <trkpt lat="56.3488348" lon="13.68188">
        <ele>124.628</ele>
        <time>2014-06-12T15:50:57Z</time>
      </trkpt>
      <trkpt lat="56.3488294" lon="13.6820319">
        <ele>125.589</ele>
        <time>2014-06-12T15:51:01Z</time>
      </trkpt>
      <trkpt lat="56.3488065" lon="13.68221">
        <ele>126.07</ele>
        <time>2014-06-12T15:51:05Z</time>
      </trkpt>
      <trkpt lat="56.3488117" lon="13.682456">
        <ele>127.031</ele>
        <time>2014-06-12T15:51:10Z</time>
      </trkpt>
      <trkpt lat="56.3488167" lon="13.6827602">
        <ele>129.435</ele>
        <time>2014-06-12T15:51:16Z</time>
      </trkpt>
      <trkpt lat="56.348822" lon="13.68296">
        <ele>129.435</ele>
        <time>2014-06-12T15:51:20Z</time>
      </trkpt>
      <trkpt lat="56.3488144" lon="13.6831069">
        <ele>129.915</ele>
        <time>2014-06-12T15:51:23Z</time>
      </trkpt>
      <trkpt lat="56.3488485" lon="13.6834043">
        <ele>129.435</ele>
        <time>2014-06-12T15:51:28Z</time>
      </trkpt>
      <trkpt lat="56.3488555" lon="13.6834589">
        <ele>128.954</ele>
        <time>2014-06-12T15:51:29Z</time>
      </trkpt>
      <trkpt lat="56.3488681" lon="13.6835414">
        <ele>128.473</ele>
        <time>2014-06-12T15:51:31Z</time>
      </trkpt>
      <trkpt lat="56.3488925" lon="13.6838195">
        <ele>127.031</ele>
        <time>2014-06-12T15:51:37Z</time>
      </trkpt>
      <trkpt lat="56.348881" lon="13.6839228">
        <ele>127.031</ele>
        <time>2014-06-12T15:51:39Z</time>
      </trkpt>
      <trkpt lat="56.348891" lon="13.6842074">
        <ele>125.589</ele>
        <time>2014-06-12T15:51:45Z</time>
      </trkpt>
      <trkpt lat="56.3488852" lon="13.6844456">
        <ele>125.109</ele>
        <time>2014-06-12T15:51:50Z</time>
      </trkpt>
      <trkpt lat="56.3488656" lon="13.6846991">
        <ele>125.109</ele>
        <time>2014-06-12T15:51:55Z</time>
      </trkpt>
      <trkpt lat="56.3488635" lon="13.6849699">
        <ele>123.667</ele>
        <time>2014-06-12T15:52:01Z</time>
      </trkpt>
      <trkpt lat="56.348878" lon="13.6852066">
        <ele>123.667</ele>
        <time>2014-06-12T15:52:06Z</time>
      </trkpt>
      <trkpt lat="56.3488773" lon="13.6852574">
        <ele>123.186</ele>
        <time>2014-06-12T15:52:07Z</time>
      </trkpt>
      <trkpt lat="56.3488586" lon="13.6855009">
        <ele>123.667</ele>
        <time>2014-06-12T15:52:12Z</time>
      </trkpt>
      <trkpt lat="56.3488485" lon="13.6856955">
        <ele>124.147</ele>
        <time>2014-06-12T15:52:16Z</time>
      </trkpt>
      <trkpt lat="56.348867" lon="13.685897">
        <ele>125.109</ele>
        <time>2014-06-12T15:52:20Z</time>
      </trkpt>
      <trkpt lat="56.3489524" lon="13.6861246">
        <ele>125.589</ele>
        <time>2014-06-12T15:52:26Z</time>
      </trkpt>
      <trkpt lat="56.3490225" lon="13.6862453">
        <ele>126.551</ele>
        <time>2014-06-12T15:52:30Z</time>
      </trkpt>
      <trkpt lat="56.3491012" lon="13.6863355">
        <ele>125.109</ele>
        <time>2014-06-12T15:52:35Z</time>
      </trkpt>
      <trkpt lat="56.3492281" lon="13.6865018">
        <ele>124.147</ele>
        <time>2014-06-12T15:52:41Z</time>
      </trkpt>
      <trkpt lat="56.349309" lon="13.686695">
        <ele>123.667</ele>
        <time>2014-06-12T15:52:47Z</time>
      </trkpt>
      <trkpt lat="56.3493326" lon="13.6867549">
        <ele>123.186</ele>
        <time>2014-06-12T15:52:49Z</time>
      </trkpt>
      <trkpt lat="56.3494235" lon="13.6869497">
        <ele>121.744</ele>
        <time>2014-06-12T15:52:54Z</time>
      </trkpt>
      <trkpt lat="56.3494547" lon="13.6870254">
        <ele>121.264</ele>
        <time>2014-06-12T15:52:56Z</time>
      </trkpt>
      <trkpt lat="56.3494784" lon="13.6871133">
        <ele>121.264</ele>
        <time>2014-06-12T15:52:58Z</time>
      </trkpt>
      <trkpt lat="56.3495312" lon="13.6872383">
        <ele>122.225</ele>
        <time>2014-06-12T15:53:03Z</time>
      </trkpt>
      <trkpt lat="56.3495923" lon="13.6873642">
        <ele>124.147</ele>
        <time>2014-06-12T15:53:08Z</time>
      </trkpt>
      <trkpt lat="56.3496686" lon="13.6874527">
        <ele>125.589</ele>
        <time>2014-06-12T15:53:12Z</time>
      </trkpt>
      <trkpt lat="56.3497481" lon="13.6875288">
        <ele>125.589</ele>
        <time>2014-06-12T15:53:16Z</time>
      </trkpt>
      <trkpt lat="56.3498115" lon="13.6875895">
        <ele>125.109</ele>
        <time>2014-06-12T15:53:19Z</time>
      </trkpt>
      <trkpt lat="56.349919" lon="13.6878226">
        <ele>124.628</ele>
        <time>2014-06-12T15:53:25Z</time>
      </trkpt>
      <trkpt lat="56.3499917" lon="13.6880847">
        <ele>124.628</ele>
        <time>2014-06-12T15:53:30Z</time>
      </trkpt>
      <trkpt lat="56.3500088" lon="13.688297">
        <ele>123.667</ele>
        <time>2014-06-12T15:53:34Z</time>
      </trkpt>
      <trkpt lat="56.3500228" lon="13.6884485">
        <ele>122.705</ele>
        <time>2014-06-12T15:53:37Z</time>
      </trkpt>
      <trkpt lat="56.3500839" lon="13.688646">
        <ele>123.186</ele>
        <time>2014-06-12T15:53:43Z</time>
      </trkpt>
      <trkpt lat="56.3501" lon="13.6886736">
        <ele>123.186</ele>
        <time>2014-06-12T15:53:44Z</time>
      </trkpt>
      <trkpt lat="56.3501755" lon="13.6887764">
        <ele>122.225</ele>
        <time>2014-06-12T15:53:49Z</time>
      </trkpt>
      <trkpt lat="56.35024" lon="13.6888926">
        <ele>118.86</ele>
        <time>2014-06-12T15:53:59Z</time>
      </trkpt>
      <trkpt lat="56.3502575" lon="13.6889123">
        <ele>118.86</ele>
        <time>2014-06-12T15:54:00Z</time>
      </trkpt>
      <trkpt lat="56.3503021" lon="13.6891316">
        <ele>119.341</ele>
        <time>2014-06-12T15:54:06Z</time>
      </trkpt>
      <trkpt lat="56.3502958" lon="13.6892627">
        <ele>118.86</ele>
        <time>2014-06-12T15:54:10Z</time>
      </trkpt>
      <trkpt lat="56.3502948" lon="13.689429">
        <ele>118.379</ele>
        <time>2014-06-12T15:54:15Z</time>
      </trkpt>
      <trkpt lat="56.3503034" lon="13.6896035">
        <ele>118.86</ele>
        <time>2014-06-12T15:54:19Z</time>
      </trkpt>
      <trkpt lat="56.3503398" lon="13.6897513">
        <ele>119.341</ele>
        <time>2014-06-12T15:54:23Z</time>
      </trkpt>
      <trkpt lat="56.3503756" lon="13.6899265">
        <ele>119.821</ele>
        <time>2014-06-12T15:54:27Z</time>
      </trkpt>
      <trkpt lat="56.3503718" lon="13.6899754">
        <ele>119.821</ele>
        <time>2014-06-12T15:54:28Z</time>
      </trkpt>
      <trkpt lat="56.3503227" lon="13.690191">
        <ele>118.86</ele>
        <time>2014-06-12T15:54:34Z</time>
      </trkpt>
      <trkpt lat="56.3502906" lon="13.6904226">
        <ele>120.302</ele>
        <time>2014-06-12T15:54:40Z</time>
      </trkpt>
      <trkpt lat="56.3502818" lon="13.6904923">
        <ele>120.302</ele>
        <time>2014-06-12T15:54:42Z</time>
      </trkpt>
      <trkpt lat="56.3502894" lon="13.6906132">
        <ele>119.821</ele>
        <time>2014-06-12T15:54:45Z</time>
      </trkpt>
      <trkpt lat="56.3503024" lon="13.6908126">
        <ele>119.821</ele>
        <time>2014-06-12T15:54:50Z</time>
      </trkpt>
      <trkpt lat="56.3503399" lon="13.6910855">
        <ele>119.821</ele>
        <time>2014-06-12T15:54:56Z</time>
      </trkpt>
      <trkpt lat="56.3503471" lon="13.6912276">
        <ele>119.821</ele>
        <time>2014-06-12T15:55:00Z</time>
      </trkpt>
      <trkpt lat="56.3503741" lon="13.6914801">
        <ele>119.821</ele>
        <time>2014-06-12T15:55:06Z</time>
      </trkpt>
      <trkpt lat="56.3503793" lon="13.6915683">
        <ele>119.821</ele>
        <time>2014-06-12T15:55:08Z</time>
      </trkpt>
      <trkpt lat="56.3504469" lon="13.6918137">
        <ele>120.783</ele>
        <time>2014-06-12T15:55:14Z</time>
      </trkpt>
      <trkpt lat="56.3505026" lon="13.6919807">
        <ele>121.744</ele>
        <time>2014-06-12T15:55:18Z</time>
      </trkpt>
      <trkpt lat="56.3505052" lon="13.6920706">
        <ele>122.225</ele>
        <time>2014-06-12T15:55:20Z</time>
      </trkpt>
      <trkpt lat="56.3505651" lon="13.6923112">
        <ele>122.705</ele>
        <time>2014-06-12T15:55:26Z</time>
      </trkpt>
      <trkpt lat="56.3506159" lon="13.6925278">
        <ele>123.186</ele>
        <time>2014-06-12T15:55:31Z</time>
      </trkpt>
      <trkpt lat="56.3506331" lon="13.6927546">
        <ele>123.186</ele>
        <time>2014-06-12T15:55:36Z</time>
      </trkpt>
      <trkpt lat="56.3506475" lon="13.6928228">
        <ele>123.667</ele>
        <time>2014-06-12T15:55:38Z</time>
      </trkpt>
      <trkpt lat="56.3506754" lon="13.6930041">
        <ele>125.109</ele>
        <time>2014-06-12T15:55:42Z</time>
      </trkpt>
      <trkpt lat="56.3506973" lon="13.6931738">
        <ele>125.589</ele>
        <time>2014-06-12T15:55:46Z</time>
      </trkpt>
      <trkpt lat="56.3507713" lon="13.6933529">
        <ele>125.109</ele>
        <time>2014-06-12T15:55:51Z</time>
      </trkpt>
      <trkpt lat="56.3508257" lon="13.6934595">
        <ele>124.628</ele>
        <time>2014-06-12T15:55:53Z</time>
      </trkpt>
      <trkpt lat="56.3509265" lon="13.6937787">
        <ele>123.186</ele>
        <time>2014-06-12T15:56:00Z</time>
      </trkpt>
      <trkpt lat="56.350982" lon="13.6940193">
        <ele>122.225</ele>
        <time>2014-06-12T15:56:06Z</time>
      </trkpt>
      <trkpt lat="56.3510014" lon="13.6941868">
        <ele>121.744</ele>
        <time>2014-06-12T15:56:10Z</time>
      </trkpt>
      <trkpt lat="56.351065" lon="13.6944881">
        <ele>121.744</ele>
        <time>2014-06-12T15:56:17Z</time>
      </trkpt>
      <trkpt lat="56.3510973" lon="13.6945965">
        <ele>121.264</ele>
        <time>2014-06-12T15:56:20Z</time>
      </trkpt>
      <trkpt lat="56.3511666" lon="13.6948388">
        <ele>121.744</ele>
        <time>2014-06-12T15:56:26Z</time>
      </trkpt>
      <trkpt lat="56.3511688" lon="13.6948851">
        <ele>121.264</ele>
        <time>2014-06-12T15:56:27Z</time>
      </trkpt>
      <trkpt lat="56.351222" lon="13.6951289">
        <ele>123.186</ele>
        <time>2014-06-12T15:56:33Z</time>
      </trkpt>
      <trkpt lat="56.3512742" lon="13.6953146">
        <ele>123.667</ele>
        <time>2014-06-12T15:56:38Z</time>
      </trkpt>
      <trkpt lat="56.3513347" lon="13.6954846">
        <ele>123.186</ele>
        <time>2014-06-12T15:56:43Z</time>
      </trkpt>
      <trkpt lat="56.3514303" lon="13.6956452">
        <ele>122.225</ele>
        <time>2014-06-12T15:56:48Z</time>
      </trkpt>
      <trkpt lat="56.3514682" lon="13.6957424">
        <ele>121.744</ele>
        <time>2014-06-12T15:56:52Z</time>
      </trkpt>
      <trkpt lat="56.3515015" lon="13.6958417">
        <ele>122.705</ele>
        <time>2014-06-12T15:56:57Z</time>
      </trkpt>
      <trkpt lat="56.3515516" lon="13.6959386">
        <ele>122.705</ele>
        <time>2014-06-12T15:57:01Z</time>
      </trkpt>
      <trkpt lat="56.3515836" lon="13.6959506">
        <ele>122.705</ele>
        <time>2014-06-12T15:57:03Z</time>
      </trkpt>
      <trkpt lat="56.3517126" lon="13.6960957">
        <ele>121.744</ele>
        <time>2014-06-12T15:57:09Z</time>
      </trkpt>
      <trkpt lat="56.3518321" lon="13.6962662">
        <ele>121.744</ele>
        <time>2014-06-12T15:57:14Z</time>
      </trkpt>
      <trkpt lat="56.3519266" lon="13.6963547">
        <ele>121.744</ele>
        <time>2014-06-12T15:57:19Z</time>
      </trkpt>
      <trkpt lat="56.3519872" lon="13.6964025">
        <ele>120.783</ele>
        <time>2014-06-12T15:57:22Z</time>
      </trkpt>
      <trkpt lat="56.3520414" lon="13.6964414">
        <ele>119.821</ele>
        <time>2014-06-12T15:57:25Z</time>
      </trkpt>
      <trkpt lat="56.352144" lon="13.6965547">
        <ele>119.341</ele>
        <time>2014-06-12T15:57:31Z</time>
      </trkpt>
      <trkpt lat="56.3522029" lon="13.6966884">
        <ele>118.86</ele>
        <time>2014-06-12T15:57:36Z</time>
      </trkpt>
      <trkpt lat="56.3522254" lon="13.696836">
        <ele>119.341</ele>
        <time>2014-06-12T15:57:40Z</time>
      </trkpt>
      <trkpt lat="56.3522626" lon="13.6970556">
        <ele>118.86</ele>
        <time>2014-06-12T15:57:46Z</time>
      </trkpt>
      <trkpt lat="56.3523337" lon="13.6973041">
        <ele>119.341</ele>
        <time>2014-06-12T15:57:51Z</time>
      </trkpt>
      <trkpt lat="56.3524321" lon="13.6975736">
        <ele>120.302</ele>
        <time>2014-06-12T15:57:57Z</time>
      </trkpt>
      <trkpt lat="56.3524983" lon="13.6977302">
        <ele>120.302</ele>
        <time>2014-06-12T15:58:00Z</time>
      </trkpt>
      <trkpt lat="56.3525941" lon="13.6979165">
        <ele>120.302</ele>
        <time>2014-06-12T15:58:04Z</time>
      </trkpt>
      <trkpt lat="56.3526532" lon="13.6980086">
        <ele>120.302</ele>
        <time>2014-06-12T15:58:07Z</time>
      </trkpt>
      <trkpt lat="56.3526709" lon="13.6980386">
        <ele>120.783</ele>
        <time>2014-06-12T15:58:08Z</time>
      </trkpt>
      <trkpt lat="56.3527211" lon="13.6981393">
        <ele>119.821</ele>
        <time>2014-06-12T15:58:12Z</time>
      </trkpt>
      <trkpt lat="56.3527619" lon="13.6982516">
        <ele>119.341</ele>
        <time>2014-06-12T15:58:17Z</time>
      </trkpt>
      <trkpt lat="56.3527714" lon="13.698318">
        <ele>118.86</ele>
        <time>2014-06-12T15:58:20Z</time>
      </trkpt>
      <trkpt lat="56.3527473" lon="13.6984362">
        <ele>118.86</ele>
        <time>2014-06-12T15:58:26Z</time>
      </trkpt>
      <trkpt lat="56.3527302" lon="13.698474">
        <ele>118.86</ele>
        <time>2014-06-12T15:58:28Z</time>
      </trkpt>
      <trkpt lat="56.352691" lon="13.6985475">
        <ele>119.341</ele>
        <time>2014-06-12T15:58:34Z</time>
      </trkpt>
      <trkpt lat="56.3526477" lon="13.6986711">
        <ele>117.899</ele>
        <time>2014-06-12T15:58:40Z</time>
      </trkpt>
      <trkpt lat="56.3526299" lon="13.6987438">
        <ele>117.418</ele>
        <time>2014-06-12T15:58:43Z</time>
      </trkpt>
      <trkpt lat="56.3525932" lon="13.6988531">
        <ele>116.457</ele>
        <time>2014-06-12T15:58:48Z</time>
      </trkpt>
      <trkpt lat="56.3525698" lon="13.6989669">
        <ele>115.976</ele>
        <time>2014-06-12T15:58:53Z</time>
      </trkpt>
      <trkpt lat="56.3525616" lon="13.6989923">
        <ele>115.976</ele>
        <time>2014-06-12T15:58:54Z</time>
      </trkpt>
      <trkpt lat="56.3525372" lon="13.6991178">
        <ele>115.976</ele>
        <time>2014-06-12T15:59:00Z</time>
      </trkpt>
      <trkpt lat="56.3525305" lon="13.6991691">
        <ele>115.015</ele>
        <time>2014-06-12T15:59:02Z</time>
      </trkpt>
      <trkpt lat="56.3525057" lon="13.6992648">
        <ele>114.054</ele>
        <time>2014-06-12T15:59:06Z</time>
      </trkpt>
      <trkpt lat="56.3524642" lon="13.699424">
        <ele>113.092</ele>
        <time>2014-06-12T15:59:13Z</time>
      </trkpt>
      <trkpt lat="56.3524036" lon="13.6995647">
        <ele>112.131</ele>
        <time>2014-06-12T15:59:20Z</time>
      </trkpt>
      <trkpt lat="56.3523882" lon="13.6995932">
        <ele>112.131</ele>
        <time>2014-06-12T15:59:22Z</time>
      </trkpt>
      <trkpt lat="56.3523553" lon="13.6996165">
        <ele>111.65</ele>
        <time>2014-06-12T15:59:25Z</time>
      </trkpt>
      <trkpt lat="56.3523322" lon="13.6996489">
        <ele>111.17</ele>
        <time>2014-06-12T15:59:28Z</time>
      </trkpt>
      <trkpt lat="56.3522605" lon="13.6996701">
        <ele>109.728</ele>
        <time>2014-06-12T15:59:34Z</time>
      </trkpt>
      <trkpt lat="56.3522124" lon="13.6996931">
        <ele>108.766</ele>
        <time>2014-06-12T15:59:39Z</time>
      </trkpt>
      <trkpt lat="56.3521503" lon="13.6997197">
        <ele>108.286</ele>
        <time>2014-06-12T15:59:44Z</time>
      </trkpt>
      <trkpt lat="56.3521382" lon="13.6997235">
        <ele>107.805</ele>
        <time>2014-06-12T15:59:45Z</time>
      </trkpt>
      <trkpt lat="56.3520942" lon="13.6997622">
        <ele>107.324</ele>
        <time>2014-06-12T15:59:50Z</time>
      </trkpt>
      <trkpt lat="56.3520399" lon="13.6998486">
        <ele>107.805</ele>
        <time>2014-06-12T15:59:55Z</time>
      </trkpt>
      <trkpt lat="56.3519817" lon="13.6999907">
        <ele>107.805</ele>
        <time>2014-06-12T16:00:02Z</time>
      </trkpt>
      <trkpt lat="56.3519736" lon="13.7000355">
        <ele>107.805</ele>
        <time>2014-06-12T16:00:04Z</time>
      </trkpt>
      <trkpt lat="56.3519484" lon="13.7001109">
        <ele>108.286</ele>
        <time>2014-06-12T16:00:08Z</time>
      </trkpt>
      <trkpt lat="56.3518711" lon="13.7002917">
        <ele>108.766</ele>
        <time>2014-06-12T16:00:17Z</time>
      </trkpt>
      <trkpt lat="56.3518251" lon="13.7004023">
        <ele>108.286</ele>
        <time>2014-06-12T16:00:23Z</time>
      </trkpt>
      <trkpt lat="56.351782" lon="13.7005325">
        <ele>107.805</ele>
        <time>2014-06-12T16:00:28Z</time>
      </trkpt>
      <trkpt lat="56.3517315" lon="13.7006471">
        <ele>107.805</ele>
        <time>2014-06-12T16:00:33Z</time>
      </trkpt>
      <trkpt lat="56.3516898" lon="13.7007693">
        <ele>108.286</ele>
        <time>2014-06-12T16:00:39Z</time>
      </trkpt>
      <trkpt lat="56.3516896" lon="13.7008904">
        <ele>108.286</ele>
        <time>2014-06-12T16:00:44Z</time>
      </trkpt>
      <trkpt lat="56.3516986" lon="13.7009508">
        <ele>107.805</ele>
        <time>2014-06-12T16:00:47Z</time>
      </trkpt>
      <trkpt lat="56.3517198" lon="13.7010721">
        <ele>106.844</ele>
        <time>2014-06-12T16:00:52Z</time>
      </trkpt>
      <trkpt lat="56.3517238" lon="13.7010987">
        <ele>106.844</ele>
        <time>2014-06-12T16:00:53Z</time>
      </trkpt>
      <trkpt lat="56.3517393" lon="13.7012681">
        <ele>107.805</ele>
        <time>2014-06-12T16:01:00Z</time>
      </trkpt>
      <trkpt lat="56.3517337" lon="13.7013618">
        <ele>108.286</ele>
        <time>2014-06-12T16:01:04Z</time>
      </trkpt>
      <trkpt lat="56.3517208" lon="13.7014017">
        <ele>107.805</ele>
        <time>2014-06-12T16:01:06Z</time>
      </trkpt>
      <trkpt lat="56.3516899" lon="13.7014509">
        <ele>108.766</ele>
        <time>2014-06-12T16:01:09Z</time>
      </trkpt>
      <trkpt lat="56.3516675" lon="13.7015136">
        <ele>108.766</ele>
        <time>2014-06-12T16:01:12Z</time>
      </trkpt>
      <trkpt lat="56.3516337" lon="13.7016893">
        <ele>107.805</ele>
        <time>2014-06-12T16:01:19Z</time>
      </trkpt>
      <trkpt lat="56.3516358" lon="13.7018804">
        <ele>107.805</ele>
        <time>2014-06-12T16:01:27Z</time>
      </trkpt>
      <trkpt lat="56.3516416" lon="13.70193">
        <ele>107.805</ele>
        <time>2014-06-12T16:01:29Z</time>
      </trkpt>
      <trkpt lat="56.3516334" lon="13.7019974">
        <ele>107.324</ele>
        <time>2014-06-12T16:01:32Z</time>
      </trkpt>
      <trkpt lat="56.3516507" lon="13.7021508">
        <ele>107.805</ele>
        <time>2014-06-12T16:01:38Z</time>
      </trkpt>
      <trkpt lat="56.3516622" lon="13.7022221">
        <ele>108.286</ele>
        <time>2014-06-12T16:01:41Z</time>
      </trkpt>
      <trkpt lat="56.3516839" lon="13.7023636">
        <ele>109.247</ele>
        <time>2014-06-12T16:01:46Z</time>
      </trkpt>
      <trkpt lat="56.3516785" lon="13.7024596">
        <ele>109.728</ele>
        <time>2014-06-12T16:01:48Z</time>
      </trkpt>
      <trkpt lat="56.3515674" lon="13.7026085">
        <ele>112.131</ele>
        <time>2014-06-12T16:01:53Z</time>
      </trkpt>
      <trkpt lat="56.3514416" lon="13.7026304">
        <ele>112.612</ele>
        <time>2014-06-12T16:01:59Z</time>
      </trkpt>
      <trkpt lat="56.3513343" lon="13.7026361">
        <ele>113.092</ele>
        <time>2014-06-12T16:02:03Z</time>
      </trkpt>
      <trkpt lat="56.3513016" lon="13.702631">
        <ele>113.092</ele>
        <time>2014-06-12T16:02:04Z</time>
      </trkpt>
      <trkpt lat="56.3511513" lon="13.7024813">
        <ele>113.573</ele>
        <time>2014-06-12T16:02:10Z</time>
      </trkpt>
      <trkpt lat="56.3510556" lon="13.7023858">
        <ele>115.496</ele>
        <time>2014-06-12T16:02:14Z</time>
      </trkpt>
      <trkpt lat="56.3509898" lon="13.7023357">
        <ele>115.976</ele>
        <time>2014-06-12T16:02:17Z</time>
      </trkpt>
      <trkpt lat="56.3508514" lon="13.7022176">
        <ele>116.938</ele>
        <time>2014-06-12T16:02:23Z</time>
      </trkpt>
      <trkpt lat="56.3507558" lon="13.7021483">
        <ele>116.938</ele>
        <time>2014-06-12T16:02:27Z</time>
      </trkpt>
      <trkpt lat="56.350695" lon="13.7020964">
        <ele>117.899</ele>
        <time>2014-06-12T16:02:30Z</time>
      </trkpt>
      <trkpt lat="56.3504857" lon="13.7019462">
        <ele>120.302</ele>
        <time>2014-06-12T16:02:38Z</time>
      </trkpt>
      <trkpt lat="56.3503324" lon="13.7018016">
        <ele>122.705</ele>
        <time>2014-06-12T16:02:44Z</time>
      </trkpt>
      <trkpt lat="56.3502595" lon="13.7017363">
        <ele>123.667</ele>
        <time>2014-06-12T16:02:47Z</time>
      </trkpt>
      <trkpt lat="56.3501196" lon="13.7015783">
        <ele>126.07</ele>
        <time>2014-06-12T16:02:53Z</time>
      </trkpt>
      <trkpt lat="56.3500029" lon="13.7014042">
        <ele>127.512</ele>
        <time>2014-06-12T16:02:59Z</time>
      </trkpt>
      <trkpt lat="56.3499475" lon="13.7013151">
        <ele>127.031</ele>
        <time>2014-06-12T16:03:02Z</time>
      </trkpt>
      <trkpt lat="56.3499112" lon="13.7011907">
        <ele>127.512</ele>
        <time>2014-06-12T16:03:06Z</time>
      </trkpt>
      <trkpt lat="56.3499031" lon="13.7011489">
        <ele>127.512</ele>
        <time>2014-06-12T16:03:07Z</time>
      </trkpt>
      <trkpt lat="56.3498538" lon="13.7009246">
        <ele>129.435</ele>
        <time>2014-06-12T16:03:13Z</time>
      </trkpt>
      <trkpt lat="56.3498341" lon="13.7008196">
        <ele>129.435</ele>
        <time>2014-06-12T16:03:16Z</time>
      </trkpt>
      <trkpt lat="56.3498121" lon="13.7006823">
        <ele>129.915</ele>
        <time>2014-06-12T16:03:20Z</time>
      </trkpt>
      <trkpt lat="56.3498375" lon="13.7005645">
        <ele>130.877</ele>
        <time>2014-06-12T16:03:24Z</time>
      </trkpt>
      <trkpt lat="56.3498684" lon="13.7004321">
        <ele>130.877</ele>
        <time>2014-06-12T16:03:27Z</time>
      </trkpt>
      <trkpt lat="56.3498591" lon="13.7002068">
        <ele>131.838</ele>
        <time>2014-06-12T16:03:33Z</time>
      </trkpt>
      <trkpt lat="56.3498513" lon="13.700172">
        <ele>131.838</ele>
        <time>2014-06-12T16:03:34Z</time>
      </trkpt>
      <trkpt lat="56.3497981" lon="13.6998817">
        <ele>132.319</ele>
        <time>2014-06-12T16:03:40Z</time>
      </trkpt>
      <trkpt lat="56.3497587" lon="13.6996491">
        <ele>132.799</ele>
        <time>2014-06-12T16:03:45Z</time>
      </trkpt>
      <trkpt lat="56.3497144" lon="13.6993973">
        <ele>134.241</ele>
        <time>2014-06-12T16:03:50Z</time>
      </trkpt>
      <trkpt lat="56.3497038" lon="13.6992598">
        <ele>134.241</ele>
        <time>2014-06-12T16:03:53Z</time>
      </trkpt>
      <trkpt lat="56.3497419" lon="13.6990425">
        <ele>134.722</ele>
        <time>2014-06-12T16:03:58Z</time>
      </trkpt>
      <trkpt lat="56.3497839" lon="13.6987753">
        <ele>135.203</ele>
        <time>2014-06-12T16:04:04Z</time>
      </trkpt>
      <trkpt lat="56.3498161" lon="13.6985566">
        <ele>135.203</ele>
        <time>2014-06-12T16:04:09Z</time>
      </trkpt>
      <trkpt lat="56.3498377" lon="13.6983848">
        <ele>136.164</ele>
        <time>2014-06-12T16:04:13Z</time>
      </trkpt>
      <trkpt lat="56.3498653" lon="13.6981705">
        <ele>136.164</ele>
        <time>2014-06-12T16:04:18Z</time>
      </trkpt>
      <trkpt lat="56.3498786" lon="13.6980257">
        <ele>136.164</ele>
        <time>2014-06-12T16:04:21Z</time>
      </trkpt>
      <trkpt lat="56.3498751" lon="13.6978171">
        <ele>136.164</ele>
        <time>2014-06-12T16:04:26Z</time>
      </trkpt>
      <trkpt lat="56.3498717" lon="13.6977252">
        <ele>136.164</ele>
        <time>2014-06-12T16:04:28Z</time>
      </trkpt>
      <trkpt lat="56.3498778" lon="13.6974888">
        <ele>137.606</ele>
        <time>2014-06-12T16:04:33Z</time>
      </trkpt>
      <trkpt lat="56.3498886" lon="13.6972068">
        <ele>137.606</ele>
        <time>2014-06-12T16:04:39Z</time>
      </trkpt>
      <trkpt lat="56.3498985" lon="13.6970184">
        <ele>138.087</ele>
        <time>2014-06-12T16:04:43Z</time>
      </trkpt>
      <trkpt lat="56.3499063" lon="13.6969269">
        <ele>138.087</ele>
        <time>2014-06-12T16:04:45Z</time>
      </trkpt>
      <trkpt lat="56.3499288" lon="13.6967536">
        <ele>137.125</ele>
        <time>2014-06-12T16:04:49Z</time>
      </trkpt>
      <trkpt lat="56.3499582" lon="13.6965728">
        <ele>137.606</ele>
        <time>2014-06-12T16:04:53Z</time>
      </trkpt>
      <trkpt lat="56.3499902" lon="13.6963807">
        <ele>138.567</ele>
        <time>2014-06-12T16:04:58Z</time>
      </trkpt>
      <trkpt lat="56.3500275" lon="13.6961284">
        <ele>138.567</ele>
        <time>2014-06-12T16:05:04Z</time>
      </trkpt>
      <trkpt lat="56.3500617" lon="13.69585">
        <ele>139.048</ele>
        <time>2014-06-12T16:05:10Z</time>
      </trkpt>
      <trkpt lat="56.350088" lon="13.6955353">
        <ele>137.606</ele>
        <time>2014-06-12T16:05:16Z</time>
      </trkpt>
      <trkpt lat="56.3501046" lon="13.6951405">
        <ele>136.164</ele>
        <time>2014-06-12T16:05:23Z</time>
      </trkpt>
      <trkpt lat="56.3501082" lon="13.6948366">
        <ele>134.241</ele>
        <time>2014-06-12T16:05:29Z</time>
      </trkpt>
      <trkpt lat="56.3500979" lon="13.6945178">
        <ele>132.319</ele>
        <time>2014-06-12T16:05:35Z</time>
      </trkpt>
      <trkpt lat="56.3500811" lon="13.6942817">
        <ele>131.357</ele>
        <time>2014-06-12T16:05:40Z</time>
      </trkpt>
      <trkpt lat="56.3500231" lon="13.6940173">
        <ele>130.396</ele>
        <time>2014-06-12T16:05:46Z</time>
      </trkpt>
      <trkpt lat="56.3499762" lon="13.6937648">
        <ele>129.435</ele>
        <time>2014-06-12T16:05:52Z</time>
      </trkpt>
      <trkpt lat="56.3499687" lon="13.6937236">
        <ele>129.435</ele>
        <time>2014-06-12T16:05:53Z</time>
      </trkpt>
      <trkpt lat="56.3499289" lon="13.6934988">
        <ele>129.435</ele>
        <time>2014-06-12T16:05:58Z</time>
      </trkpt>
      <trkpt lat="56.3499012" lon="13.6932418">
        <ele>129.915</ele>
        <time>2014-06-12T16:06:04Z</time>
      </trkpt>
      <trkpt lat="56.3498861" lon="13.6930424">
        <ele>129.435</ele>
        <time>2014-06-12T16:06:09Z</time>
      </trkpt>
      <trkpt lat="56.3498274" lon="13.6928618">
        <ele>127.512</ele>
        <time>2014-06-12T16:06:14Z</time>
      </trkpt>
      <trkpt lat="56.349794" lon="13.6925773">
        <ele>126.551</ele>
        <time>2014-06-12T16:06:21Z</time>
      </trkpt>
      <trkpt lat="56.3498026" lon="13.6923826">
        <ele>126.551</ele>
        <time>2014-06-12T16:06:25Z</time>
      </trkpt>
      <trkpt lat="56.3497203" lon="13.6920148">
        <ele>125.109</ele>
        <time>2014-06-12T16:06:33Z</time>
      </trkpt>
      <trkpt lat="56.3497116" lon="13.6917722">
        <ele>124.628</ele>
        <time>2014-06-12T16:06:38Z</time>
      </trkpt>
      <trkpt lat="56.3496877" lon="13.6915227">
        <ele>123.667</ele>
        <time>2014-06-12T16:06:43Z</time>
      </trkpt>
      <trkpt lat="56.3496764" lon="13.6912439">
        <ele>124.147</ele>
        <time>2014-06-12T16:06:48Z</time>
      </trkpt>
      <trkpt lat="56.3496339" lon="13.6910027">
        <ele>124.147</ele>
        <time>2014-06-12T16:06:53Z</time>
      </trkpt>
      <trkpt lat="56.3495522" lon="13.6907033">
        <ele>125.109</ele>
        <time>2014-06-12T16:06:59Z</time>
      </trkpt>
      <trkpt lat="56.3495286" lon="13.6906094">
        <ele>126.07</ele>
        <time>2014-06-12T16:07:01Z</time>
      </trkpt>
      <trkpt lat="56.3494078" lon="13.690336">
        <ele>127.031</ele>
        <time>2014-06-12T16:07:08Z</time>
      </trkpt>
      <trkpt lat="56.3493511" lon="13.6902236">
        <ele>127.512</ele>
        <time>2014-06-12T16:07:11Z</time>
      </trkpt>
      <trkpt lat="56.3492614" lon="13.6900024">
        <ele>127.512</ele>
        <time>2014-06-12T16:07:16Z</time>
      </trkpt>
      <trkpt lat="56.3492437" lon="13.6898931">
        <ele>127.993</ele>
        <time>2014-06-12T16:07:18Z</time>
      </trkpt>
      <trkpt lat="56.3492841" lon="13.6896341">
        <ele>128.954</ele>
        <time>2014-06-12T16:07:23Z</time>
      </trkpt>
      <trkpt lat="56.3493697" lon="13.6893051">
        <ele>128.473</ele>
        <time>2014-06-12T16:07:30Z</time>
      </trkpt>
      <trkpt lat="56.349442" lon="13.6891229">
        <ele>128.473</ele>
        <time>2014-06-12T16:07:35Z</time>
      </trkpt>
      <trkpt lat="56.3494788" lon="13.688962">
        <ele>128.954</ele>
        <time>2014-06-12T16:07:40Z</time>
      </trkpt>
      <trkpt lat="56.3494907" lon="13.6888954">
        <ele>128.954</ele>
        <time>2014-06-12T16:07:42Z</time>
      </trkpt>
      <trkpt lat="56.3494984" lon="13.6886457">
        <ele>129.915</ele>
        <time>2014-06-12T16:07:48Z</time>
      </trkpt>
      <trkpt lat="56.3494758" lon="13.6884709">
        <ele>129.915</ele>
        <time>2014-06-12T16:07:52Z</time>
      </trkpt>
      <trkpt lat="56.3494476" lon="13.6883246">
        <ele>131.357</ele>
        <time>2014-06-12T16:07:56Z</time>
      </trkpt>
      <trkpt lat="56.3494171" lon="13.6881815">
        <ele>131.838</ele>
        <time>2014-06-12T16:08:00Z</time>
      </trkpt>
      <trkpt lat="56.3493692" lon="13.6880281">
        <ele>131.357</ele>
        <time>2014-06-12T16:08:04Z</time>
      </trkpt>
      <trkpt lat="56.3492966" lon="13.6878911">
        <ele>130.877</ele>
        <time>2014-06-12T16:08:09Z</time>
      </trkpt>
      <trkpt lat="56.3492586" lon="13.6878007">
        <ele>129.915</ele>
        <time>2014-06-12T16:08:12Z</time>
      </trkpt>
      <trkpt lat="56.3491527" lon="13.6875485">
        <ele>128.473</ele>
        <time>2014-06-12T16:08:18Z</time>
      </trkpt>
      <trkpt lat="56.349104" lon="13.6873973">
        <ele>126.551</ele>
        <time>2014-06-12T16:08:22Z</time>
      </trkpt>
      <trkpt lat="56.3490786" lon="13.6873098">
        <ele>126.551</ele>
        <time>2014-06-12T16:08:24Z</time>
      </trkpt>
      <trkpt lat="56.3489722" lon="13.6871625">
        <ele>127.031</ele>
        <time>2014-06-12T16:08:29Z</time>
      </trkpt>
      <trkpt lat="56.348877" lon="13.6870785">
        <ele>127.512</ele>
        <time>2014-06-12T16:08:33Z</time>
      </trkpt>
      <trkpt lat="56.3487955" lon="13.6869725">
        <ele>127.993</ele>
        <time>2014-06-12T16:08:37Z</time>
      </trkpt>
      <trkpt lat="56.3487226" lon="13.6869228">
        <ele>128.954</ele>
        <time>2014-06-12T16:08:41Z</time>
      </trkpt>
      <trkpt lat="56.3486226" lon="13.6869073">
        <ele>129.915</ele>
        <time>2014-06-12T16:08:46Z</time>
      </trkpt>
      <trkpt lat="56.3485338" lon="13.6869372">
        <ele>130.396</ele>
        <time>2014-06-12T16:08:51Z</time>
      </trkpt>
      <trkpt lat="56.3484786" lon="13.6869491">
        <ele>130.396</ele>
        <time>2014-06-12T16:08:54Z</time>
      </trkpt>
      <trkpt lat="56.3483719" lon="13.6869071">
        <ele>130.396</ele>
        <time>2014-06-12T16:08:58Z</time>
      </trkpt>
      <trkpt lat="56.3482937" lon="13.6868352">
        <ele>128.954</ele>
        <time>2014-06-12T16:09:02Z</time>
      </trkpt>
      <trkpt lat="56.3482548" lon="13.6867952">
        <ele>128.954</ele>
        <time>2014-06-12T16:09:04Z</time>
      </trkpt>
      <trkpt lat="56.3481878" lon="13.6867418">
        <ele>128.473</ele>
        <time>2014-06-12T16:09:08Z</time>
      </trkpt>
      <trkpt lat="56.3480901" lon="13.6866385">
        <ele>127.512</ele>
        <time>2014-06-12T16:09:12Z</time>
      </trkpt>
      <trkpt lat="56.3480566" lon="13.6865831">
        <ele>127.512</ele>
        <time>2014-06-12T16:09:14Z</time>
      </trkpt>
      <trkpt lat="56.3479585" lon="13.6865215">
        <ele>127.993</ele>
        <time>2014-06-12T16:09:19Z</time>
      </trkpt>
      <trkpt lat="56.3479372" lon="13.6865162">
        <ele>127.993</ele>
        <time>2014-06-12T16:09:20Z</time>
      </trkpt>
      <trkpt lat="56.3478264" lon="13.6865372">
        <ele>127.031</ele>
        <time>2014-06-12T16:09:25Z</time>
      </trkpt>
      <trkpt lat="56.3477219" lon="13.6865431">
        <ele>127.031</ele>
        <time>2014-06-12T16:09:29Z</time>
      </trkpt>
      <trkpt lat="56.3476627" lon="13.6865447">
        <ele>126.551</ele>
        <time>2014-06-12T16:09:32Z</time>
      </trkpt>
      <trkpt lat="56.3476249" lon="13.6865622">
        <ele>126.07</ele>
        <time>2014-06-12T16:09:34Z</time>
      </trkpt>
      <trkpt lat="56.3474904" lon="13.6866276">
        <ele>124.147</ele>
        <time>2014-06-12T16:09:39Z</time>
      </trkpt>
      <trkpt lat="56.347457" lon="13.6866512">
        <ele>124.147</ele>
        <time>2014-06-12T16:09:40Z</time>
      </trkpt>
      <trkpt lat="56.3472966" lon="13.6866167">
        <ele>124.628</ele>
        <time>2014-06-12T16:09:46Z</time>
      </trkpt>
      <trkpt lat="56.3472136" lon="13.6866781">
        <ele>124.147</ele>
        <time>2014-06-12T16:09:50Z</time>
      </trkpt>
      <trkpt lat="56.3471625" lon="13.6867524">
        <ele>123.667</ele>
        <time>2014-06-12T16:09:52Z</time>
      </trkpt>
      <trkpt lat="56.3470423" lon="13.6867457">
        <ele>123.667</ele>
        <time>2014-06-12T16:09:56Z</time>
      </trkpt>
      <trkpt lat="56.346984" lon="13.6866805">
        <ele>123.186</ele>
        <time>2014-06-12T16:09:58Z</time>
      </trkpt>
      <trkpt lat="56.3468562" lon="13.6865069">
        <ele>122.705</ele>
        <time>2014-06-12T16:10:03Z</time>
      </trkpt>
      <trkpt lat="56.3468059" lon="13.6864498">
        <ele>122.705</ele>
        <time>2014-06-12T16:10:05Z</time>
      </trkpt>
      <trkpt lat="56.3467288" lon="13.6863199">
        <ele>122.705</ele>
        <time>2014-06-12T16:10:09Z</time>
      </trkpt>
      <trkpt lat="56.3466759" lon="13.6862104">
        <ele>122.705</ele>
        <time>2014-06-12T16:10:12Z</time>
      </trkpt>
      <trkpt lat="56.3466014" lon="13.6860729">
        <ele>122.225</ele>
        <time>2014-06-12T16:10:16Z</time>
      </trkpt>
    </trkseg>
  </trk>
</gpx>